Time;durP1;ratioP1;P1;durP2;ratioP2;P2;SDS_P1;SDS_P2;PMS_P1;PMS_P2;Temp;Humidity;BMP_temperature;BMP_pressure;BME280_temperature;BME280_humidity;BME280_pressure;Samples;Min_cycle;Max_cycle;Signal;HPM_P1;HPM_P2
2022/01/01 00:01:45;;;;;;;49.78;26.10;;;10.70;99.90;;;;;;5031611;28;20385;-74
2022/01/01 00:04:49;;;;;;;52.30;26.48;;;10.60;99.90;;;;;;5031609;28;20053;-74
2022/01/01 00:07:55;;;;;;;45.67;25.88;;;10.60;99.90;;;;;;5031121;28;20065;-74
2022/01/01 00:10:59;;;;;;;50.95;27.35;;;10.60;99.90;;;;;;5031305;28;20068;-74
2022/01/01 00:14:03;;;;;;;46.42;26.67;;;10.60;99.90;;;;;;5031380;28;20417;-75
2022/01/01 00:17:09;;;;;;;52.22;28.42;;;10.60;99.90;;;;;;5030862;28;20036;-74
2022/01/01 00:20:13;;;;;;;51.75;28.55;;;10.60;99.90;;;;;;5031100;28;20380;-75
2022/01/01 00:23:17;;;;;;;55.13;29.48;;;10.60;99.90;;;;;;5030648;28;20523;-75
2022/01/01 00:26:21;;;;;;;77.43;41.22;;;10.60;99.90;;;;;;5031518;28;20045;-74
2022/01/01 00:29:25;;;;;;;73.70;42.35;;;10.60;99.90;;;;;;5031303;28;20048;-74
2022/01/01 00:32:29;;;;;;;77.93;43.50;;;10.60;99.90;;;;;;5031690;28;20064;-75
2022/01/01 00:35:34;;;;;;;196.38;103.18;;;10.70;99.90;;;;;;5030276;28;20068;-74
2022/01/01 00:38:38;;;;;;;153.27;86.57;;;10.70;99.90;;;;;;5030817;28;20044;-75
2022/01/01 00:41:43;;;;;;;91.20;52.90;;;10.60;99.90;;;;;;5031138;28;20327;-74
2022/01/01 00:44:46;;;;;;;87.25;51.10;;;10.60;99.90;;;;;;5031180;28;20056;-75
2022/01/01 00:47:50;;;;;;;84.13;52.45;;;10.70;99.90;;;;;;5030984;28;20050;-74
2022/01/01 00:50:55;;;;;;;83.75;53.22;;;10.70;99.90;;;;;;5031099;28;20052;-75
2022/01/01 00:53:59;;;;;;;61.83;37.95;;;10.70;99.90;;;;;;5031141;28;20048;-75
2022/01/01 00:57:03;;;;;;;59.17;37.78;;;10.70;99.90;;;;;;5030525;28;20048;-74
2022/01/01 01:00:08;;;;;;;61.75;36.60;;;10.70;99.90;;;;;;5029977;28;20036;-75
2022/01/01 01:03:15;;;;;;;52.08;33.08;;;10.80;99.90;;;;;;5030970;28;20227;-74
2022/01/01 01:06:20;;;;;;;37.30;23.25;;;10.80;99.90;;;;;;5029970;28;20072;-75
2022/01/01 01:09:24;;;;;;;53.20;34.28;;;10.80;99.90;;;;;;5030473;28;20492;-75
2022/01/01 01:12:38;;;;;;;36.03;21.55;;;10.80;99.90;;;;;;5030755;28;20045;-75
2022/01/01 01:15:43;;;;;;;45.38;30.60;;;10.80;99.90;;;;;;5030390;28;20046;-75
2022/01/01 01:18:47;;;;;;;34.60;22.58;;;10.80;99.90;;;;;;5029660;28;20056;-75
2022/01/01 01:21:51;;;;;;;33.17;23.58;;;10.80;99.90;;;;;;5030339;28;20036;-75
2022/01/01 01:24:56;;;;;;;25.73;16.52;;;10.80;99.90;;;;;;5029846;28;20056;-75
2022/01/01 01:28:06;;;;;;;26.40;15.30;;;10.80;99.90;;;;;;5029984;28;20044;-75
2022/01/01 01:31:11;;;;;;;23.23;15.00;;;10.80;99.90;;;;;;5030147;28;20044;-74
2022/01/01 01:34:15;;;;;;;25.65;17.08;;;10.80;99.90;;;;;;5030246;28;20052;-75
2022/01/01 01:37:21;;;;;;;23.75;16.80;;;10.80;99.90;;;;;;5029949;28;20495;-74
2022/01/01 01:40:26;;;;;;;19.58;13.38;;;10.80;99.90;;;;;;5029806;28;20049;-75
2022/01/01 01:43:30;;;;;;;21.20;16.00;;;10.80;99.90;;;;;;5030144;28;20053;-75
2022/01/01 01:46:34;;;;;;;18.38;13.50;;;10.80;99.90;;;;;;5029466;28;20041;-75
2022/01/01 01:49:38;;;;;;;20.42;15.60;;;10.80;99.90;;;;;;5029549;28;20048;-75
2022/01/01 01:52:48;;;;;;;22.23;16.25;;;10.80;99.90;;;;;;5029955;28;20033;-75
2022/01/01 01:55:54;;;;;;;16.83;11.18;;;10.80;99.90;;;;;;5029966;28;20044;-75
2022/01/01 01:58:58;;;;;;;20.98;15.13;;;10.80;99.90;;;;;;5040189;28;20052;-75
2022/01/01 02:02:02;;;;;;;18.80;13.45;;;10.80;99.90;;;;;;5029918;28;20052;-75
2022/01/01 02:05:06;;;;;;;15.15;8.35;;;10.80;99.90;;;;;;5029940;28;20045;-74
2022/01/01 02:08:11;;;;;;;12.15;8.15;;;10.70;99.90;;;;;;5029207;28;20048;-75
2022/01/01 02:11:17;;;;;;;10.55;6.57;;;10.70;99.90;;;;;;5029696;28;20041;-75
2022/01/01 02:14:33;;;;;;;11.45;6.95;;;10.70;99.90;;;;;;5029682;28;20060;-75
2022/01/01 02:17:37;;;;;;;8.68;6.55;;;10.70;99.90;;;;;;5029756;28;20052;-74
2022/01/01 02:20:43;;;;;;;11.00;6.90;;;10.70;99.90;;;;;;5029796;28;20068;-75
2022/01/01 02:23:48;;;;;;;11.27;7.65;;;10.70;99.90;;;;;;5029628;28;20495;-75
2022/01/01 02:26:53;;;;;;;11.57;8.07;;;10.70;99.90;;;;;;5029864;28;20511;-75
2022/01/01 02:29:57;;;;;;;13.23;9.55;;;10.70;99.90;;;;;;5029182;28;20052;-75
2022/01/01 02:33:01;;;;;;;13.23;9.98;;;10.70;99.90;;;;;;5029498;28;20041;-75
2022/01/01 02:36:06;;;;;;;22.58;18.33;;;10.60;99.90;;;;;;5029482;28;20040;-75
2022/01/01 02:39:19;;;;;;;25.73;20.23;;;10.70;99.90;;;;;;5028982;28;20049;-75
2022/01/01 02:42:24;;;;;;;12.55;7.30;;;10.60;99.90;;;;;;5029323;28;20028;-75
2022/01/01 02:45:30;;;;;;;12.00;7.78;;;10.60;99.90;;;;;;5029585;28;20052;-75
2022/01/01 02:48:34;;;;;;;11.43;8.32;;;10.60;99.90;;;;;;5028832;28;20404;-75
2022/01/01 02:51:38;;;;;;;9.40;5.95;;;10.60;99.90;;;;;;5029557;28;20064;-75
2022/01/01 02:54:42;;;;;;;7.88;5.43;;;10.50;99.90;;;;;;5029236;28;20511;-75
2022/01/01 02:57:46;;;;;;;9.68;6.40;;;10.50;99.90;;;;;;5030342;28;20037;-75
2022/01/01 03:00:50;;;;;;;10.70;5.55;;;10.50;99.90;;;;;;5032952;28;20056;-75
2022/01/01 03:03:54;;;;;;;7.72;4.80;;;10.50;99.90;;;;;;5032839;28;20032;-75
2022/01/01 03:06:59;;;;;;;7.90;4.20;;;10.50;99.90;;;;;;5032658;28;20079;-74
2022/01/01 03:10:04;;;;;;;8.73;4.95;;;10.50;99.90;;;;;;5032260;28;20400;-74
2022/01/01 03:13:08;;;;;;;6.13;4.38;;;10.50;99.90;;;;;;5032584;28;20049;-75
2022/01/01 03:16:13;;;;;;;6.82;4.57;;;10.50;99.90;;;;;;5032269;28;20040;-75
2022/01/01 03:19:17;;;;;;;7.90;4.60;;;10.50;99.90;;;;;;5032281;28;20061;-74
2022/01/01 03:22:21;;;;;;;6.18;4.13;;;10.50;99.90;;;;;;5032654;28;20044;-75
2022/01/01 03:25:25;;;;;;;8.05;4.60;;;10.50;99.90;;;;;;5032618;28;20052;-75
2022/01/01 03:28:29;;;;;;;5.07;3.95;;;10.50;99.90;;;;;;5032199;28;20052;-75
2022/01/01 03:31:33;;;;;;;11.10;4.47;;;10.60;99.90;;;;;;5031495;28;20053;-75
2022/01/01 03:34:37;;;;;;;5.78;4.00;;;10.60;99.90;;;;;;5032792;28;20056;-75
2022/01/01 03:37:41;;;;;;;6.53;4.00;;;10.60;99.90;;;;;;5032613;28;20036;-74
2022/01/01 03:40:45;;;;;;;6.38;3.90;;;10.60;99.90;;;;;;5032153;28;20048;-75
2022/01/01 03:43:49;;;;;;;5.45;3.67;;;10.60;99.90;;;;;;5032464;28;20044;-74
2022/01/01 03:47:09;;;;;;;4.40;3.20;;;10.60;99.90;;;;;;5032111;28;20053;-75
2022/01/01 03:50:14;;;;;;;5.28;3.63;;;10.60;99.90;;;;;;5030882;28;20060;-75
2022/01/01 03:53:18;;;;;;;5.25;3.40;;;10.60;99.90;;;;;;5032214;28;20064;-75
2022/01/01 03:56:22;;;;;;;4.78;3.17;;;10.60;99.90;;;;;;5031922;28;20044;-75
2022/01/01 03:59:26;;;;;;;4.93;3.55;;;10.60;99.90;;;;;;5031650;28;20072;-74
2022/01/01 04:02:32;;;;;;;5.68;3.28;;;10.60;99.90;;;;;;5031939;28;20049;-75
2022/01/01 04:05:42;;;;;;;5.25;4.43;;;10.60;99.90;;;;;;5031800;28;20063;-75
2022/01/01 04:08:46;;;;;;;5.03;3.97;;;10.70;99.90;;;;;;5031514;28;20426;-75
2022/01/01 04:11:51;;;;;;;6.00;3.78;;;10.70;99.90;;;;;;5031597;28;20045;-75
2022/01/01 04:14:57;;;;;;;4.18;3.03;;;10.70;99.90;;;;;;5031771;28;20167;-75
2022/01/01 04:18:07;;;;;;;4.35;2.88;;;10.60;99.90;;;;;;5031445;28;20123;-72
2022/01/01 04:21:12;;;;;;;6.32;3.35;;;10.60;99.90;;;;;;5031194;28;20044;-74
2022/01/01 04:24:16;;;;;;;5.32;3.60;;;10.60;99.90;;;;;;5031269;28;20048;-75
2022/01/01 04:27:20;;;;;;;6.00;3.50;;;10.60;99.90;;;;;;5030228;28;20530;-74
2022/01/01 04:30:25;;;;;;;8.20;6.05;;;10.60;99.90;;;;;;5030741;28;20400;-75
2022/01/01 04:33:31;;;;;;;10.80;6.90;;;10.60;99.90;;;;;;5031132;28;20048;-75
2022/01/01 04:36:46;;;;;;;15.70;9.32;;;10.60;99.90;;;;;;5030869;28;20052;-75
2022/01/01 04:39:55;;;;;;;21.38;11.25;;;10.50;99.90;;;;;;5030216;28;20515;-75
2022/01/01 04:42:59;;;;;;;19.58;12.88;;;10.50;99.90;;;;;;5030876;28;20052;-75
2022/01/01 04:46:03;;;;;;;29.30;14.95;;;10.50;99.90;;;;;;5030863;28;20393;-75
2022/01/01 04:49:08;;;;;;;24.52;14.60;;;10.50;99.90;;;;;;5030324;28;20040;-75
2022/01/01 04:52:12;;;;;;;17.55;10.73;;;10.40;99.90;;;;;;5030938;28;20052;-75
2022/01/01 04:55:15;;;;;;;23.02;12.10;;;10.40;99.90;;;;;;5030566;28;20053;-75
2022/01/01 04:58:19;;;;;;;12.52;8.15;;;10.40;99.90;;;;;;5030128;28;20048;-75
2022/01/01 05:01:23;;;;;;;9.13;6.43;;;10.40;99.90;;;;;;5030289;28;20515;-75
2022/01/01 05:04:27;;;;;;;11.93;7.93;;;10.50;99.90;;;;;;5030513;28;20048;-74
2022/01/01 05:07:31;;;;;;;13.40;7.00;;;10.50;99.90;;;;;;5030597;28;20044;-74
2022/01/01 05:10:35;;;;;;;16.73;10.45;;;10.50;99.90;;;;;;5030562;28;20045;-75
2022/01/01 05:13:39;;;;;;;16.10;10.65;;;10.50;99.90;;;;;;5030327;28;20048;-74
2022/01/01 05:16:43;;;;;;;12.65;7.90;;;10.40;99.90;;;;;;5030513;28;20044;-75
2022/01/01 05:19:47;;;;;;;11.23;7.20;;;10.40;99.90;;;;;;5030179;28;20036;-75
2022/01/01 05:22:51;;;;;;;9.65;5.28;;;10.40;99.90;;;;;;5030223;28;20495;-75
2022/01/01 05:25:55;;;;;;;6.70;4.15;;;10.40;99.90;;;;;;5030440;28;20049;-75
2022/01/01 05:28:59;;;;;;;8.45;4.82;;;10.50;99.90;;;;;;5029919;28;20495;-75
2022/01/01 05:32:04;;;;;;;10.32;5.80;;;10.40;99.90;;;;;;5030179;28;20048;-75
2022/01/01 05:35:08;;;;;;;9.30;5.75;;;10.40;99.90;;;;;;5030535;28;20421;-74
2022/01/01 05:38:12;;;;;;;8.40;5.05;;;10.40;99.90;;;;;;5030249;28;20037;-74
2022/01/01 05:41:16;;;;;;;5.55;3.88;;;10.40;99.90;;;;;;5030325;28;20396;-74
2022/01/01 05:44:21;;;;;;;5.10;3.58;;;10.40;99.90;;;;;;5029241;28;20048;-74
2022/01/01 05:47:25;;;;;;;4.78;3.25;;;10.40;99.90;;;;;;5030834;28;20048;-74
2022/01/01 05:50:30;;;;;;;5.75;3.72;;;10.40;99.90;;;;;;5030711;28;20065;-74
2022/01/01 05:53:34;;;;;;;5.47;3.70;;;10.50;99.90;;;;;;5030276;28;20048;-72
2022/01/01 05:56:39;;;;;;;7.70;3.95;;;10.40;99.90;;;;;;5030079;28;20056;-74
2022/01/01 05:59:43;;;;;;;5.72;3.47;;;10.50;99.90;;;;;;5030193;28;20048;-74
2022/01/01 06:02:47;;;;;;;8.48;3.85;;;10.50;99.90;;;;;;5030422;28;20044;-74
2022/01/01 06:05:52;;;;;;;6.53;4.15;;;10.50;99.90;;;;;;5030564;28;20488;-74
2022/01/01 06:08:55;;;;;;;4.75;3.75;;;10.40;99.90;;;;;;5030029;28;20052;-75
2022/01/01 06:11:59;;;;;;;4.35;3.38;;;10.40;99.90;;;;;;5030391;28;20072;-74
2022/01/01 06:15:04;;;;;;;5.10;3.28;;;10.40;99.90;;;;;;5030133;28;20045;-75
2022/01/01 06:18:08;;;;;;;5.22;3.53;;;10.40;99.90;;;;;;5030115;28;20687;-74
2022/01/01 06:21:11;;;;;;;7.10;3.17;;;10.40;99.90;;;;;;5029932;28;20495;-74
2022/01/01 06:24:15;;;;;;;6.40;3.42;;;10.40;99.90;;;;;;5030070;28;20044;-74
2022/01/01 06:27:19;;;;;;;4.55;2.85;;;10.40;99.90;;;;;;5029867;28;20508;-74
2022/01/01 06:30:24;;;;;;;4.05;2.85;;;10.40;99.90;;;;;;5029735;28;20412;-74
2022/01/01 06:33:28;;;;;;;5.18;3.13;;;10.40;99.90;;;;;;5033109;28;20077;-75
2022/01/01 06:36:32;;;;;;;3.90;2.92;;;10.40;99.90;;;;;;5033611;28;20539;-74
2022/01/01 06:39:37;;;;;;;5.38;2.92;;;10.40;99.90;;;;;;5033885;28;20045;-74
2022/01/01 06:42:43;;;;;;;4.80;3.00;;;10.00;99.90;;;;;;5033983;28;20484;-74
2022/01/01 06:45:47;;;;;;;3.75;3.00;;;10.30;99.90;;;;;;5033902;28;20400;-74
2022/01/01 06:48:51;;;;;;;4.63;3.25;;;10.30;99.90;;;;;;5033798;28;20048;-74
2022/01/01 06:51:55;;;;;;;10.55;5.07;;;10.20;99.90;;;;;;5033699;28;20044;-75
2022/01/01 06:54:58;;;;;;;6.30;4.10;;;10.20;99.90;;;;;;5033841;28;20396;-75
2022/01/01 06:58:03;;;;;;;5.47;3.70;;;10.10;99.90;;;;;;5033366;28;20060;-74
2022/01/01 07:01:06;;;;;;;6.13;3.65;;;10.10;99.90;;;;;;5033635;28;20044;-75
2022/01/01 07:04:10;;;;;;;35.15;20.35;;;10.10;99.90;;;;;;5033547;28;20396;-75
2022/01/01 07:07:15;;;;;;;33.78;17.00;;;10.10;99.90;;;;;;5033330;28;20499;-74
2022/01/01 07:10:20;;;;;;;31.05;19.15;;;10.10;99.90;;;;;;5033099;28;20056;-74
2022/01/01 07:13:25;;;;;;;32.75;18.80;;;9.90;99.90;;;;;;5033226;28;20056;-75
2022/01/01 07:16:29;;;;;;;29.42;18.17;;;9.80;99.90;;;;;;5032758;28;20048;-74
2022/01/01 07:19:33;;;;;;;33.55;18.48;;;9.80;99.90;;;;;;5032569;28;20048;-75
2022/01/01 07:22:44;;;;;;;36.22;19.20;;;9.80;99.90;;;;;;5033139;28;20047;-75
2022/01/01 07:25:49;;;;;;;32.80;20.10;;;9.80;99.90;;;;;;5032988;28;20052;-75
2022/01/01 07:28:53;;;;;;;34.72;18.60;;;9.90;99.90;;;;;;5032202;28;20049;-75
2022/01/01 07:31:57;;;;;;;22.80;15.00;;;9.80;99.90;;;;;;5032533;28;20068;-74
2022/01/01 07:35:01;;;;;;;16.48;9.57;;;9.80;99.90;;;;;;5032723;28;20504;-74
2022/01/01 07:38:06;;;;;;;33.00;17.45;;;9.90;99.90;;;;;;5032546;28;20072;-75
2022/01/01 07:41:10;;;;;;;43.13;26.60;;;9.90;99.90;;;;;;5032605;28;20052;-74
2022/01/01 07:44:15;;;;;;;52.67;27.48;;;9.90;99.90;;;;;;5032015;28;20045;-75
2022/01/01 07:47:19;;;;;;;44.22;24.35;;;9.90;99.90;;;;;;5032608;28;20052;-74
2022/01/01 07:50:23;;;;;;;30.92;16.35;;;9.90;99.90;;;;;;5032242;28;20052;-74
2022/01/01 07:53:27;;;;;;;28.73;17.02;;;10.00;99.90;;;;;;5032516;28;20049;-75
2022/01/01 07:56:31;;;;;;;35.70;20.92;;;10.10;99.90;;;;;;5031580;28;20044;-75
2022/01/01 07:59:35;;;;;;;26.35;16.40;;;10.10;99.90;;;;;;5032016;28;20041;-75
2022/01/01 08:02:43;;;;;;;13.13;7.60;;;10.20;99.90;;;;;;5032056;28;20044;-75
2022/01/01 08:05:47;;;;;;;8.48;5.88;;;10.20;99.90;;;;;;5032221;28;20060;-75
2022/01/01 08:08:51;;;;;;;12.13;7.43;;;10.20;99.90;;;;;;5031923;28;20041;-74
2022/01/01 08:11:55;;;;;;;7.82;5.72;;;10.30;99.90;;;;;;5032070;28;20131;-75
2022/01/01 08:14:59;;;;;;;8.63;4.75;;;10.30;99.90;;;;;;5031999;28;20037;-74
2022/01/01 08:18:04;;;;;;;9.23;5.28;;;10.40;99.90;;;;;;5031981;28;20392;-75
2022/01/01 08:21:08;;;;;;;7.93;5.07;;;10.50;99.90;;;;;;5031830;28;20048;-75
2022/01/01 08:24:12;;;;;;;11.57;7.25;;;10.50;99.90;;;;;;5031464;28;20045;-74
2022/01/01 08:27:17;;;;;;;54.72;32.38;;;10.70;99.90;;;;;;5031819;28;20056;-74
2022/01/01 08:30:21;;;;;;;53.78;31.92;;;10.60;99.90;;;;;;5031518;28;20048;-74
2022/01/01 08:33:25;;;;;;;53.83;30.50;;;10.50;99.90;;;;;;5031978;28;20583;-74
2022/01/01 08:36:29;;;;;;;42.88;26.15;;;10.50;99.90;;;;;;5031151;28;20052;-74
2022/01/01 08:39:33;;;;;;;28.92;17.75;;;10.50;99.90;;;;;;5030964;28;20053;-74
2022/01/01 08:42:37;;;;;;;15.05;9.30;;;10.50;99.90;;;;;;5031820;28;20056;-74
2022/01/01 08:45:42;;;;;;;12.25;7.63;;;10.60;99.90;;;;;;5031494;28;20392;-74
2022/01/01 08:48:46;;;;;;;20.70;12.45;;;10.70;99.90;;;;;;5031458;28;20200;-74
2022/01/01 08:51:50;;;;;;;48.95;27.42;;;10.90;99.90;;;;;;5031309;28;20056;-74
2022/01/01 08:54:55;;;;;;;56.63;33.35;;;10.90;99.90;;;;;;5030481;28;20048;-74
2022/01/01 08:57:59;;;;;;;50.97;29.75;;;10.90;99.90;;;;;;5041775;28;20044;-74
2022/01/01 09:01:04;;;;;;;43.72;24.38;;;11.20;99.90;;;;;;5030748;28;20045;-74
2022/01/01 09:04:08;;;;;;;34.53;20.58;;;10.90;99.90;;;;;;5030956;28;20052;-74
2022/01/01 09:07:13;;;;;;;28.90;16.92;;;10.90;99.90;;;;;;5031099;28;20384;-75
2022/01/01 09:10:19;;;;;;;23.42;14.32;;;11.10;99.90;;;;;;5030618;28;20041;-75
2022/01/01 09:13:23;;;;;;;16.95;12.30;;;11.10;99.90;;;;;;5031007;28;20068;-74
2022/01/01 09:16:29;;;;;;;16.55;9.18;;;11.10;99.90;;;;;;5029903;28;20440;-74
2022/01/01 09:19:33;;;;;;;13.85;8.88;;;11.20;99.90;;;;;;5030410;28;20049;-74
2022/01/01 09:22:38;;;;;;;12.35;8.25;;;11.20;99.90;;;;;;5030530;28;20044;-74
2022/01/01 09:25:42;;;;;;;16.60;10.52;;;11.30;99.90;;;;;;5030696;28;20064;-74
2022/01/01 09:28:46;;;;;;;11.35;5.00;;;11.50;99.90;;;;;;5030147;28;20389;-74
2022/01/01 09:31:50;;;;;;;18.60;11.70;;;11.50;99.90;;;;;;5030464;28;20064;-74
2022/01/01 09:34:55;;;;;;;19.98;13.02;;;11.80;99.90;;;;;;5029557;28;20056;-74
2022/01/01 09:37:59;;;;;;;20.98;13.63;;;11.60;99.90;;;;;;5030491;28;20049;-74
2022/01/01 09:41:04;;;;;;;18.13;11.50;;;11.60;99.90;;;;;;5029978;28;20037;-74
2022/01/01 09:44:13;;;;;;;19.92;11.95;;;11.50;99.90;;;;;;5030471;28;20060;-74
2022/01/01 09:47:17;;;;;;;13.38;9.30;;;11.60;99.90;;;;;;5030500;28;20052;-74
2022/01/01 09:50:21;;;;;;;15.55;9.35;;;11.60;99.90;;;;;;5030024;28;20056;-74
2022/01/01 09:53:27;;;;;;;11.10;6.40;;;11.60;99.90;;;;;;5030047;28;20501;-75
2022/01/01 09:56:31;;;;;;;6.45;4.25;;;11.70;99.90;;;;;;5030218;28;20049;-74
2022/01/01 09:59:38;;;;;;;5.97;3.90;;;11.70;99.90;;;;;;5030099;28;20060;-74
2022/01/01 10:02:42;;;;;;;8.10;5.15;;;11.80;99.90;;;;;;5029878;28;20060;-74
2022/01/01 10:06:23;;;;;;;7.28;4.78;;;11.90;99.90;;;;;;5030237;28;20037;-75
2022/01/01 10:09:35;;;;;;;4.97;3.30;;;11.90;99.90;;;;;;5034293;28;20036;-74
2022/01/01 10:12:43;;;;;;;6.88;4.00;;;12.00;99.90;;;;;;5034600;28;20045;-75
2022/01/01 10:15:48;;;;;;;8.52;3.92;;;12.00;99.90;;;;;;5034254;28;20056;-75
2022/01/01 10:18:54;;;;;;;6.40;3.53;;;11.90;99.90;;;;;;5034339;28;20049;-74
2022/01/01 10:22:03;;;;;;;5.13;3.72;;;12.00;99.90;;;;;;5034519;28;20346;-74
2022/01/01 10:28:38;;;;;;;5.72;4.00;;;11.90;99.90;;;;;;5033989;28;20052;-74
2022/01/01 10:32:08;;;;;;;5.63;4.50;;;12.00;99.90;;;;;;5034148;28;20037;-74
2022/01/01 10:35:16;;;;;;;8.07;4.40;;;12.10;99.90;;;;;;5033809;28;20044;-75
2022/01/01 10:38:26;;;;;;;13.23;7.57;;;12.10;99.90;;;;;;5033774;28;20068;-74
2022/01/01 10:41:44;;;;;;;6.32;4.72;;;12.00;99.90;;;;;;5033517;28;20044;-74
2022/01/01 10:44:50;;;;;;;14.98;8.80;;;12.00;99.90;;;;;;5033709;28;20072;-74
2022/01/01 10:48:18;;;;;;;11.25;8.15;;;12.00;99.90;;;;;;5033524;28;20049;-74
2022/01/01 10:51:22;;;;;;;13.23;8.38;;;12.00;99.90;;;;;;5033392;28;20381;-74
2022/01/01 10:54:26;;;;;;;24.65;14.60;;;11.90;99.90;;;;;;5033516;28;20056;-75
2022/01/01 10:57:35;;;;;;;11.15;7.60;;;11.80;99.90;;;;;;5033142;28;20048;-74
2022/01/01 11:00:41;;;;;;;9.07;6.20;;;11.80;99.90;;;;;;5033388;28;20542;-75
2022/01/01 11:03:45;;;;;;;11.18;9.10;;;11.80;99.90;;;;;;5040070;28;20044;-74
2022/01/01 11:06:50;;;;;;;13.38;9.98;;;11.90;99.90;;;;;;5040916;28;20041;-74
2022/01/01 11:09:59;;;;;;;8.00;6.00;;;12.00;99.90;;;;;;5046912;28;20056;-74
2022/01/01 11:13:05;;;;;;;8.48;6.75;;;12.00;99.90;;;;;;5044113;28;20471;-74
2022/01/01 11:16:09;;;;;;;9.18;7.20;;;12.10;99.90;;;;;;5040439;28;20515;-74
2022/01/01 11:19:14;;;;;;;7.85;6.15;;;12.10;99.90;;;;;;5035075;28;20041;-74
2022/01/01 11:22:19;;;;;;;7.03;5.03;;;12.20;99.90;;;;;;5033105;28;20052;-74
2022/01/01 11:25:24;;;;;;;18.17;11.32;;;12.20;99.90;;;;;;5046933;28;20055;-74
2022/01/01 11:28:29;;;;;;;22.42;14.35;;;12.20;99.90;;;;;;5051952;28;20052;-75
2022/01/01 11:31:36;;;;;;;18.00;9.20;;;12.20;99.90;;;;;;5052889;28;20047;-74
2022/01/01 11:34:44;;;;;;;20.15;12.70;;;12.20;99.90;;;;;;5032993;28;20044;-74
2022/01/01 11:38:12;;;;;;;15.95;10.95;;;12.30;99.90;;;;;;5031797;28;20531;-75
2022/01/01 11:41:18;;;;;;;9.27;6.07;;;12.30;99.90;;;;;;5032687;28;20036;-74
2022/01/01 11:44:32;;;;;;;11.73;8.82;;;12.30;99.90;;;;;;5032844;28;20491;-74
2022/01/01 11:47:36;;;;;;;10.35;6.75;;;12.30;99.90;;;;;;5032487;28;20065;-74
2022/01/01 11:50:42;;;;;;;9.68;6.72;;;12.30;99.90;;;;;;5032449;28;20048;-74
2022/01/01 11:54:07;;;;;;;13.23;9.95;;;12.30;99.90;;;;;;5039738;28;20403;-74
2022/01/01 11:57:29;;;;;;;25.75;18.10;;;12.40;99.90;;;;;;5051912;28;20304;-74
2022/01/01 12:00:32;;;;;;;10.83;7.00;;;12.30;99.90;;;;;;5032715;28;20056;-74
2022/01/01 12:03:48;;;;;;;16.88;10.50;;;12.30;99.90;;;;;;5032357;28;20404;-74
2022/01/01 12:06:54;;;;;;;11.95;9.50;;;12.40;99.90;;;;;;5032180;28;20068;-74
2022/01/01 12:13:12;;;;;;;13.32;8.95;;;12.50;99.90;;;;;;5035079;28;20040;-74
2022/01/01 12:16:22;;;;;;;9.35;6.70;;;12.50;99.90;;;;;;5032239;28;20048;-75
2022/01/01 12:19:27;;;;;;;10.35;6.35;;;12.70;99.90;;;;;;5032017;28;20488;-74
2022/01/01 12:22:37;;;;;;;18.95;14.82;;;12.80;99.90;;;;;;5031209;28;20064;-74
2022/01/01 12:25:43;;;;;;;14.45;10.00;;;12.90;99.90;;;;;;5032041;28;20048;-74
2022/01/01 12:28:48;;;;;;;10.30;7.20;;;12.80;99.90;;;;;;5032149;28;20048;-74
2022/01/01 12:31:58;;;;;;;8.77;5.75;;;12.70;99.90;;;;;;5031854;28;20044;-74
2022/01/01 12:35:07;;;;;;;8.90;6.25;;;12.70;99.90;;;;;;5031815;28;20056;-74
2022/01/01 12:38:21;;;;;;;24.35;15.00;;;12.60;99.90;;;;;;5031575;28;20040;-74
2022/01/01 12:41:34;;;;;;;17.13;12.27;;;12.60;99.90;;;;;;5031548;28;20048;-74
2022/01/01 12:44:43;;;;;;;22.42;16.50;;;12.60;99.90;;;;;;5031100;28;20044;-75
2022/01/01 12:47:47;;;;;;;11.88;8.38;;;12.50;99.90;;;;;;5030948;28;20053;-74
2022/01/01 12:51:03;;;;;;;9.50;6.53;;;12.50;99.90;;;;;;5031910;28;20048;-74
2022/01/01 12:54:16;;;;;;;9.90;6.32;;;12.50;99.90;;;;;;5031697;28;20044;-74
2022/01/01 12:57:19;;;;;;;;;;;12.50;99.90;;;;;;5032031;28;20499;-74
2022/01/01 13:00:23;;;;;;;8.15;6.15;;;12.50;99.90;;;;;;5031366;28;19909;-74
2022/01/01 13:03:28;;;;;;;9.38;6.35;;;12.40;99.90;;;;;;5031576;28;20064;-74
2022/01/01 13:06:35;;;;;;;10.32;7.13;;;12.40;99.90;;;;;;5031094;28;20041;-74
2022/01/01 13:09:40;;;;;;;11.50;7.32;;;12.50;99.90;;;;;;5030247;28;20098;-74
2022/01/01 13:12:48;;;;;;;8.68;6.40;;;12.50;99.90;;;;;;5031240;28;20052;-75
2022/01/01 13:15:56;;;;;;;11.43;8.20;;;12.50;99.90;;;;;;5031312;28;20048;-74
2022/01/01 13:19:01;;;;;;;11.43;8.18;;;12.40;99.90;;;;;;5031054;28;20068;-74
2022/01/01 13:22:07;;;;;;;11.85;7.35;;;12.30;99.90;;;;;;5031274;28;20052;-74
2022/01/01 13:25:12;;;;;;;61.40;32.85;;;12.30;99.90;;;;;;5031196;28;20508;-75
2022/01/01 13:28:16;;;;;;;156.45;77.70;;;12.40;99.90;;;;;;5030985;28;20072;-74
2022/01/01 13:31:20;;;;;;;121.72;60.88;;;12.50;99.90;;;;;;5031023;28;20491;-74
2022/01/01 13:34:25;;;;;;;117.18;63.78;;;12.40;99.90;;;;;;5031127;28;20048;-74
2022/01/01 13:37:29;;;;;;;124.97;65.07;;;12.40;99.90;;;;;;5030989;28;20045;-74
2022/01/01 13:40:35;;;;;;;13.88;9.05;;;12.30;99.90;;;;;;5030908;28;20044;-74
2022/01/01 13:43:40;;;;;;;57.95;37.53;;;12.40;99.90;;;;;;5031214;28;20045;-74
2022/01/01 13:46:45;;;;;;;19.70;14.68;;;12.20;99.90;;;;;;5031258;28;20052;-74
2022/01/01 13:49:54;;;;;;;13.93;10.18;;;12.20;99.90;;;;;;5030786;28;20400;-74
2022/01/01 13:53:04;;;;;;;17.63;12.20;;;12.20;99.90;;;;;;5031107;28;20504;-74
2022/01/01 13:56:21;;;;;;;30.75;20.88;;;12.20;99.90;;;;;;5031027;28;20503;-74
2022/01/01 13:59:28;;;;;;;25.33;17.95;;;12.20;99.90;;;;;;5030600;28;20392;-74
2022/01/01 14:02:34;;;;;;;22.42;13.90;;;12.20;99.90;;;;;;5031152;28;20048;-74
2022/01/01 14:05:39;;;;;;;13.40;8.75;;;12.10;99.90;;;;;;5030437;28;20551;-74
2022/01/01 14:08:57;;;;;;;14.02;9.85;;;12.00;99.90;;;;;;5030470;28;20040;-74
2022/01/01 14:12:03;;;;;;;10.25;7.93;;;12.00;99.90;;;;;;5030604;28;20052;-74
2022/01/01 14:15:15;;;;;;;9.88;7.10;;;11.80;99.90;;;;;;5030588;28;20068;-74
2022/01/01 14:18:30;;;;;;;13.70;8.40;;;11.80;99.90;;;;;;5029953;28;20049;-74
2022/01/01 14:21:34;;;;;;;11.10;8.50;;;11.70;99.90;;;;;;5030562;28;20044;-74
2022/01/01 14:24:52;;;;;;;11.20;7.97;;;11.70;99.90;;;;;;5029585;28;20060;-74
2022/01/01 14:28:04;;;;;;;8.98;6.13;;;11.70;99.90;;;;;;5030543;28;20041;-74
2022/01/01 14:31:08;;;;;;;9.55;6.22;;;11.70;99.90;;;;;;5029992;28;20511;-74
2022/01/01 14:34:15;;;;;;;11.63;7.97;;;11.60;99.90;;;;;;5030301;28;20065;-74
2022/01/01 14:37:21;;;;;;;25.77;13.48;;;11.50;99.90;;;;;;5029259;28;20056;-74
2022/01/01 14:40:26;;;;;;;15.18;9.75;;;11.50;99.90;;;;;;5029986;28;20044;-74
2022/01/01 14:43:31;;;;;;;8.05;5.97;;;11.40;99.90;;;;;;5030207;28;20036;-74
2022/01/01 14:46:42;;;;;;;12.43;8.13;;;11.30;99.90;;;;;;5030305;28;20052;-74
2022/01/01 14:49:51;;;;;;;15.13;9.70;;;11.10;99.90;;;;;;5029710;28;20047;-74
2022/01/01 14:53:15;;;;;;;15.38;10.93;;;11.10;99.90;;;;;;5030375;28;20044;-74
2022/01/01 14:56:38;;;;;;;8.40;5.95;;;11.00;99.90;;;;;;5033474;28;20381;-74
2022/01/01 14:59:44;;;;;;;11.20;5.93;;;11.00;99.90;;;;;;5033833;28;20052;-74
2022/01/01 15:02:49;;;;;;;10.48;7.50;;;10.90;99.90;;;;;;5033598;28;20044;-74
2022/01/01 15:05:53;;;;;;;10.23;7.82;;;10.80;99.90;;;;;;5033393;28;20065;-74
2022/01/01 15:08:59;;;;;;;17.15;7.80;;;10.80;99.90;;;;;;5032385;28;20396;-74
2022/01/01 15:12:04;;;;;;;12.23;7.85;;;10.70;99.90;;;;;;5033261;28;20499;-74
2022/01/01 15:15:09;;;;;;;13.07;8.63;;;10.60;99.90;;;;;;5033338;28;20042;-74
2022/01/01 15:18:14;;;;;;;10.18;6.78;;;10.70;99.90;;;;;;5032774;28;20056;-74
2022/01/01 15:21:43;;;;;;;10.30;6.75;;;10.70;99.90;;;;;;5033305;28;20057;-74
2022/01/01 15:24:49;;;;;;;9.55;7.03;;;10.60;99.90;;;;;;5033024;28;20040;-74
2022/01/01 15:27:55;;;;;;;13.93;7.85;;;10.60;99.90;;;;;;5033013;28;20057;-74
2022/01/01 15:31:05;;;;;;;18.58;9.90;;;10.60;99.90;;;;;;5033217;28;20384;-74
2022/01/01 15:34:20;;;;;;;16.70;11.57;;;10.50;99.90;;;;;;5033541;28;20049;-74
2022/01/01 15:37:26;;;;;;;30.55;19.52;;;10.40;99.90;;;;;;5032734;28;20048;-74
2022/01/01 15:40:41;;;;;;;23.30;16.40;;;10.40;99.90;;;;;;5033051;28;20334;-74
2022/01/01 15:43:48;;;;;;;23.00;15.30;;;10.40;99.90;;;;;;5032955;28;20041;-74
2022/01/01 15:46:54;;;;;;;46.80;25.83;;;10.40;99.90;;;;;;5032995;28;20048;-74
2022/01/01 15:50:00;;;;;;;58.00;33.47;;;10.40;99.90;;;;;;5032747;28;20037;-74
2022/01/01 15:53:04;;;;;;;55.78;32.75;;;10.40;99.90;;;;;;5032578;28;20066;-74
2022/01/01 15:56:16;;;;;;;28.98;19.02;;;10.40;99.90;;;;;;5032388;28;20324;-74
2022/01/01 15:59:22;;;;;;;14.80;7.88;;;10.40;99.90;;;;;;5032242;28;20048;-74
2022/01/01 16:02:45;;;;;;;55.22;37.75;;;10.40;99.90;;;;;;5032388;28;20515;-74